Time;durP1;ratioP1;P1;durP2;ratioP2;P2;SDS_P1;SDS_P2;PMS_P1;PMS_P2;Temp;Humidity;BMP_temperature;BMP_pressure;BME280_temperature;BME280_humidity;BME280_pressure;Samples;Min_cycle;Max_cycle;Signal;HPM_P1;HPM_P2
2022/07/05 00:01:02;;;;;;;2.40;2.03;;;16.40;99.90;;;;;;4972348;28;20207;-75
2022/07/05 00:03:28;;;;;;;4.00;2.63;;;16.30;99.90;;;;;;4970872;28;20475;-76
2022/07/05 00:05:54;;;;;;;2.27;2.17;;;16.20;99.90;;;;;;4972401;28;20521;-75
2022/07/05 00:08:21;;;;;;;5.10;2.90;;;16.30;99.90;;;;;;4972413;28;20647;-75
2022/07/05 00:10:47;;;;;;;2.70;2.43;;;16.20;99.90;;;;;;4972181;28;20989;-75
2022/07/05 00:13:13;;;;;;;2.47;2.27;;;16.20;99.90;;;;;;4971931;28;20543;-75
2022/07/05 00:15:38;;;;;;;2.83;2.63;;;16.20;99.90;;;;;;4971964;28;20416;-75
2022/07/05 00:18:04;;;;;;;2.07;1.97;;;16.20;99.90;;;;;;4972157;28;20778;-75
2022/07/05 00:20:30;;;;;;;3.37;2.70;;;16.10;99.90;;;;;;4971640;28;20267;-75
2022/07/05 00:22:55;;;;;;;4.90;2.70;;;16.00;99.90;;;;;;4972193;28;20186;-75
2022/07/05 00:25:21;;;;;;;2.60;2.43;;;16.00;99.90;;;;;;4970443;28;20676;-75
2022/07/05 00:27:46;;;;;;;2.57;2.33;;;16.00;99.90;;;;;;4972277;28;20208;-75
2022/07/05 00:30:13;;;;;;;3.77;2.77;;;16.00;99.90;;;;;;4972073;28;20183;-75
2022/07/05 00:32:39;;;;;;;2.70;2.53;;;15.90;99.90;;;;;;4970594;28;20176;-75
2022/07/05 00:35:05;;;;;;;3.00;2.53;;;15.80;99.90;;;;;;4970523;28;20474;-75
2022/07/05 00:37:31;;;;;;;2.70;2.50;;;15.80;99.90;;;;;;4971815;28;20423;-75
2022/07/05 00:39:56;;;;;;;2.30;1.93;;;15.80;99.90;;;;;;4974083;28;20909;-75
2022/07/05 00:42:22;;;;;;;4.10;2.40;;;15.70;99.90;;;;;;4975888;28;20274;-75
2022/07/05 00:44:48;;;;;;;2.70;2.60;;;15.70;99.90;;;;;;4975801;28;20679;-75
2022/07/05 00:47:13;;;;;;;2.33;2.23;;;15.70;99.90;;;;;;4975821;28;20318;-75
2022/07/05 00:49:40;;;;;;;2.63;2.40;;;15.70;99.90;;;;;;4975879;28;20231;-75
2022/07/05 00:52:07;;;;;;;2.30;2.20;;;15.60;99.90;;;;;;4975558;28;20199;-75
2022/07/05 00:54:35;;;;;;;2.50;2.30;;;15.60;99.90;;;;;;4975747;28;20418;-75
2022/07/05 00:57:01;;;;;;;2.60;2.50;;;15.60;99.90;;;;;;4975728;28;20577;-75
2022/07/05 00:59:28;;;;;;;2.23;1.90;;;15.50;99.90;;;;;;4975623;28;20436;-75
2022/07/05 02:31:49;;;;;;;4.43;2.80;;;14.60;99.90;;;;;;5538558;23;20529;-75
2022/07/05 02:34:14;;;;;;;2.70;2.43;;;14.60;99.90;;;;;;4972148;28;20451;-76
2022/07/05 02:36:39;;;;;;;3.67;3.30;;;14.60;99.90;;;;;;4963143;28;20258;-76
2022/07/05 02:39:05;;;;;;;6.70;3.23;;;14.50;99.90;;;;;;4974157;28;20178;-77
2022/07/05 02:41:30;;;;;;;3.40;2.40;;;14.50;99.90;;;;;;4973123;28;20227;-75
2022/07/05 02:43:56;;;;;;;3.27;3.07;;;14.40;99.90;;;;;;4973893;28;20184;-76
2022/07/05 02:46:22;;;;;;;3.37;3.10;;;14.50;99.90;;;;;;4973703;28;20212;-77
2022/07/05 02:48:47;;;;;;;3.23;3.03;;;14.40;99.90;;;;;;4973575;28;20181;-77
2022/07/05 02:51:16;;;;;;;3.63;3.33;;;14.40;99.90;;;;;;4973151;28;20192;-77
2022/07/05 02:53:41;;;;;;;3.60;3.30;;;14.30;99.90;;;;;;4973633;28;20319;-77
2022/07/05 02:56:07;;;;;;;6.93;3.60;;;14.30;99.90;;;;;;4973780;28;20526;-76
2022/07/05 02:58:32;;;;;;;5.50;3.37;;;14.30;99.90;;;;;;4973268;28;20665;-77
2022/07/05 03:00:58;;;;;;;5.63;2.97;;;14.20;99.90;;;;;;4972745;28;20327;-76
2022/07/05 03:03:24;;;;;;;3.17;2.97;;;14.20;99.90;;;;;;4973430;28;20187;-78
2022/07/05 03:05:49;;;;;;;5.53;3.10;;;14.20;99.90;;;;;;4973185;28;20210;-77
2022/07/05 03:08:15;;;;;;;3.10;2.90;;;14.10;99.90;;;;;;4971705;28;20178;-77
2022/07/05 03:10:40;;;;;;;4.03;3.00;;;14.10;99.90;;;;;;4972158;28;20180;-77
2022/07/05 03:13:06;;;;;;;6.20;3.07;;;14.10;99.90;;;;;;4972997;28;20344;-77
2022/07/05 03:15:32;;;;;;;3.60;3.30;;;14.00;99.90;;;;;;4973410;28;20182;-79
2022/07/05 03:17:57;;;;;;;6.43;3.90;;;14.00;99.90;;;;;;4973509;28;20176;-75
2022/07/05 03:20:23;;;;;;;6.47;3.00;;;14.00;99.90;;;;;;4971771;28;20179;-74
2022/07/05 03:22:48;;;;;;;3.53;2.80;;;14.00;99.90;;;;;;4972717;28;20283;-78
2022/07/05 03:25:14;;;;;;;2.90;2.70;;;13.90;99.90;;;;;;4973382;28;20211;-78
2022/07/05 03:27:39;;;;;;;3.40;3.20;;;13.90;99.90;;;;;;4973284;28;20179;-77
2022/07/05 03:30:06;;;;;;;3.20;2.90;;;13.90;99.90;;;;;;4973606;28;20618;-78
2022/07/05 03:32:31;;;;;;;2.73;2.63;;;13.90;99.90;;;;;;4972194;28;20235;-77
2022/07/05 03:34:57;;;;;;;3.67;3.37;;;13.80;99.90;;;;;;4973087;28;20465;-76
2022/07/05 03:37:23;;;;;;;5.43;3.27;;;13.80;99.90;;;;;;4973029;28;20179;-76
2022/07/05 03:39:48;;;;;;;3.23;2.93;;;13.80;99.90;;;;;;4972903;28;20191;-76
2022/07/05 03:42:14;;;;;;;3.03;2.80;;;13.80;99.90;;;;;;4972346;28;20279;-76
2022/07/05 03:44:39;;;;;;;3.03;2.83;;;13.80;99.90;;;;;;4972824;28;20206;-75
2022/07/05 03:47:05;;;;;;;3.87;2.60;;;13.80;99.90;;;;;;4972715;28;20255;-76
2022/07/05 03:49:30;;;;;;;2.93;2.73;;;13.70;99.90;;;;;;4972704;28;20180;-76
2022/07/05 03:51:56;;;;;;;2.80;2.60;;;13.70;99.90;;;;;;4972375;28;20204;-73
2022/07/05 03:54:21;;;;;;;2.83;2.63;;;13.70;99.90;;;;;;4973026;28;20183;-76
2022/07/05 03:56:47;;;;;;;3.00;2.80;;;13.70;99.90;;;;;;4972787;28;20263;-76
2022/07/05 03:59:12;;;;;;;4.10;3.00;;;13.70;99.90;;;;;;4972464;28;20633;-76
2022/07/05 04:01:38;;;;;;;4.10;2.37;;;13.80;99.90;;;;;;4971938;28;20203;-74
2022/07/05 04:04:04;;;;;;;2.80;2.60;;;13.80;99.90;;;;;;4972958;28;20172;-76
2022/07/05 04:06:29;;;;;;;4.20;2.20;;;13.80;99.90;;;;;;4972616;28;20207;-76
2022/07/05 04:08:55;;;;;;;3.57;3.27;;;13.80;99.90;;;;;;4972752;28;20312;-76
2022/07/05 04:11:20;;;;;;;2.60;2.40;;;13.80;99.90;;;;;;4971712;28;20315;-75
2022/07/05 04:13:46;;;;;;;3.43;2.80;;;13.80;99.90;;;;;;4972362;28;20183;-76
2022/07/05 04:16:12;;;;;;;2.60;2.40;;;13.80;99.90;;;;;;4972282;28;20184;-75
2022/07/05 04:18:37;;;;;;;3.40;3.10;;;13.80;99.90;;;;;;4971987;28;20211;-73
2022/07/05 04:21:03;;;;;;;2.60;2.40;;;13.90;99.90;;;;;;4970948;28;20195;-74
2022/07/05 04:23:29;;;;;;;2.97;2.77;;;13.90;99.90;;;;;;4971931;28;20183;-75
2022/07/05 04:25:55;;;;;;;7.97;2.77;;;14.00;99.90;;;;;;4971971;28;20208;-75
2022/07/05 04:28:20;;;;;;;2.70;2.60;;;14.10;99.90;;;;;;4972059;28;20584;-76
2022/07/05 04:30:46;;;;;;;2.80;2.60;;;14.10;99.90;;;;;;4970819;28;20634;-75
2022/07/05 04:33:11;;;;;;;3.07;2.77;;;14.10;99.90;;;;;;4972006;28;20211;-75
2022/07/05 04:35:37;;;;;;;3.60;3.07;;;14.10;99.90;;;;;;4971691;28;20176;-75
2022/07/05 04:38:03;;;;;;;8.37;2.77;;;14.20;99.90;;;;;;4972270;28;20654;-75
2022/07/05 04:40:28;;;;;;;2.80;2.70;;;14.30;99.90;;;;;;4971185;28;20540;-75
2022/07/05 04:42:54;;;;;;;2.53;2.33;;;14.40;99.90;;;;;;4972258;28;20556;-75
2022/07/05 04:45:19;;;;;;;2.60;2.50;;;14.50;99.90;;;;;;4973648;28;20211;-76
2022/07/05 04:47:45;;;;;;;2.70;2.50;;;14.60;99.90;;;;;;4961953;28;20216;-75
2022/07/05 04:50:10;;;;;;;6.13;2.80;;;14.60;99.90;;;;;;4955103;28;20239;-75
2022/07/05 04:52:36;;;;;;;3.83;3.20;;;14.70;99.90;;;;;;4959829;28;20677;-74
2022/07/05 04:55:04;;;;;;;5.80;2.67;;;14.80;99.90;;;;;;4952318;28;20192;-75
2022/07/05 04:57:49;;;;;;;2.87;2.70;;;15.00;99.90;;;;;;4967020;28;20684;-74
2022/07/05 05:00:15;;;;;;;3.50;3.30;;;15.10;99.90;;;;;;4951353;28;20428;-74
2022/07/05 05:02:41;;;;;;;4.47;2.77;;;15.20;99.90;;;;;;4951492;28;20795;-73
2022/07/05 05:05:07;;;;;;;2.50;2.33;;;15.40;99.90;;;;;;4952216;28;20204;-75
2022/07/05 05:07:34;;;;;;;3.20;2.80;;;15.70;99.90;;;;;;4952150;28;20185;-75
2022/07/05 05:10:00;;;;;;;4.73;3.13;;;16.30;99.90;;;;;;4951284;28;20432;-74
2022/07/05 05:12:26;;;;;;;4.10;2.00;;;16.90;99.90;;;;;;4948263;28;20440;-72
2022/07/05 05:14:51;;;;;;;2.80;2.60;;;17.50;99.90;;;;;;4966035;28;20263;-74
2022/07/05 05:17:17;;;;;;;4.10;2.50;;;18.10;99.90;;;;;;4952985;28;20428;-72
2022/07/05 05:19:44;;;;;;;6.30;3.53;;;18.60;99.90;;;;;;4950619;28;20177;-74
2022/07/05 05:22:10;;;;;;;4.30;2.07;;;19.10;99.90;;;;;;4950713;28;20196;-75
2022/07/05 05:24:35;;;;;;;3.47;1.83;;;19.50;99.90;;;;;;4950745;29;20464;-75
2022/07/05 05:27:01;;;;;;;1.90;1.80;;;20.00;99.90;;;;;;4953603;28;20452;-74
2022/07/05 05:29:27;;;;;;;13.63;2.03;;;20.50;99.90;;;;;;4954758;29;20168;-74
2022/07/05 05:31:52;;;;;;;1.40;1.33;;;20.70;99.90;;;;;;4954754;28;20295;-75
2022/07/05 05:34:18;;;;;;;4.97;1.83;;;21.20;99.90;;;;;;4955912;29;20528;-75
2022/07/05 05:36:43;;;;;;;3.77;1.80;;;21.50;99.90;;;;;;4955216;29;20184;-75
2022/07/05 05:39:09;;;;;;;4.23;1.90;;;21.80;99.90;;;;;;4955587;29;20173;-75
2022/07/05 05:41:35;;;;;;;2.60;1.30;;;22.20;99.90;;;;;;4953372;28;20236;-75
2022/07/05 05:44:01;;;;;;;5.23;1.63;;;22.60;99.90;;;;;;4955333;29;20517;-75
2022/07/05 05:46:26;;;;;;;5.53;1.17;;;22.70;99.90;;;;;;4955308;28;20632;-72
2022/07/05 05:48:52;;;;;;;1.90;1.00;;;22.70;99.90;;;;;;4955484;29;20525;-76
2022/07/05 05:51:17;;;;;;;2.60;1.20;;;22.90;99.90;;;;;;4953995;28;20747;-73
2022/07/05 05:53:45;;;;;;;2.23;1.20;;;23.00;99.90;;;;;;4955044;29;20641;-75
2022/07/05 05:56:10;;;;;;;2.10;1.30;;;23.20;99.90;;;;;;4955349;29;20169;-75
2022/07/05 05:58:36;;;;;;;2.40;1.60;;;23.40;99.90;;;;;;4954737;28;20762;-72
2022/07/05 06:01:01;;;;;;;2.00;1.70;;;23.40;99.90;;;;;;4954730;28;20200;-75
2022/07/05 06:03:27;;;;;;;2.13;1.10;;;23.50;99.90;;;;;;4954208;29;20181;-75
2022/07/05 06:05:53;;;;;;;2.00;1.40;;;23.60;99.90;;;;;;4955326;29;20212;-75
2022/07/05 06:08:18;;;;;;;1.23;1.00;;;23.70;99.90;;;;;;4955408;28;20585;-74
2022/07/05 06:10:45;;;;;;;3.23;1.17;;;23.80;99.90;;;;;;4954347;28;20416;-75
2022/07/05 06:13:12;;;;;;;2.90;1.70;;;23.80;99.90;;;;;;4955220;29;20176;-75
2022/07/05 06:15:38;;;;;;;1.60;1.37;;;23.90;99.90;;;;;;4954360;28;20442;-74
2022/07/05 06:18:04;;;;;;;1.53;1.20;;;24.10;99.90;;;;;;4955290;28;20424;-76
2022/07/05 06:20:32;;;;;;;1.20;1.10;;;24.40;99.90;;;;;;4954541;28;20811;-75
2022/07/05 06:22:58;;;;;;;6.33;1.07;;;24.60;99.90;;;;;;4954517;28;20503;-73
2022/07/05 06:25:24;;;;;;;4.63;1.47;;;24.60;99.90;;;;;;4954730;29;20820;-75
2022/07/05 06:27:57;;;;;;;2.03;1.00;;;24.60;99.90;;;;;;4955275;29;20413;-75
2022/07/05 06:30:24;;;;;;;2.20;1.27;;;24.90;99.90;;;;;;4954383;29;20448;-76
2022/07/05 06:32:50;;;;;;;2.30;0.70;;;25.10;99.90;;;;;;4968949;28;20456;-75
2022/07/05 06:35:16;;;;;;;1.17;1.07;;;25.20;99.90;;;;;;4954296;28;20425;-73
2022/07/05 06:37:52;;;;;;;1.30;0.80;;;25.40;99.90;;;;;;4954400;28;20423;-74
2022/07/05 06:40:19;;;;;;;6.40;1.83;;;25.60;99.90;;;;;;4954505;28;20412;-75
2022/07/05 06:42:45;;;;;;;1.40;1.20;;;25.70;99.90;;;;;;4953223;28;20499;-75
2022/07/05 06:45:11;;;;;;;1.47;0.97;;;26.00;99.90;;;;;;4954822;28;20495;-75
2022/07/05 06:47:37;;;;;;;2.10;0.90;;;26.30;99.90;;;;;;4954380;28;20451;-72
2022/07/05 06:50:04;;;;;;;1.30;1.17;;;26.30;99.90;;;;;;4954551;28;20405;-76
2022/07/05 06:52:31;;;;;;;1.50;1.10;;;26.10;99.90;;;;;;4953124;28;20223;-76
2022/07/05 06:54:57;;;;;;;2.17;1.10;;;25.90;99.90;;;;;;4954650;28;20496;-72
2022/07/05 06:57:23;;;;;;;2.97;1.40;;;26.00;99.90;;;;;;4954589;28;20511;-75
2022/07/05 06:59:49;;;;;;;0.90;0.90;;;26.10;99.90;;;;;;4955303;29;20600;-76
2022/07/05 07:02:14;;;;;;;3.27;0.80;;;26.50;99.90;;;;;;4954309;28;20436;-75
2022/07/05 07:04:40;;;;;;;5.97;1.00;;;26.50;99.90;;;;;;4952956;29;20256;-76
2022/07/05 07:09:17;;;;;;;2.23;1.30;;;26.70;99.90;;;;;;4954206;29;20684;-76
2022/07/05 07:10:01;;;;;;;1.43;0.73;;;26.90;99.90;;;;;;4954007;29;20657;-75
2022/07/05 07:12:28;;;;;;;2.63;1.20;;;27.10;99.90;;;;;;4952877;28;20455;-75
2022/07/05 07:14:55;;;;;;;2.30;1.20;;;27.30;99.90;;;;;;4953989;28;20431;-76
2022/07/05 07:17:20;;;;;;;1.17;0.80;;;27.20;99.90;;;;;;4953420;28;20933;-75
2022/07/05 07:19:46;;;;;;;1.00;0.77;;;27.00;99.90;;;;;;4953888;28;20507;-75
2022/07/05 07:22:11;;;;;;;1.93;0.83;;;27.00;99.90;;;;;;4953014;28;20192;-76
2022/07/05 07:24:37;;;;;;;2.20;0.83;;;27.00;99.90;;;;;;4953531;29;20243;-73
2022/07/05 07:27:02;;;;;;;3.67;0.90;;;27.00;99.90;;;;;;4953670;28;20704;-75
2022/07/05 07:29:29;;;;;;;6.37;1.40;;;27.00;99.90;;;;;;4952988;29;20181;-75
2022/07/05 07:31:55;;;;;;;3.70;0.90;;;27.10;99.90;;;;;;4952838;28;20213;-76
2022/07/05 07:34:21;;;;;;;2.80;1.13;;;27.20;99.90;;;;;;4953394;28;20416;-76
2022/07/05 07:36:47;;;;;;;1.00;1.00;;;27.40;99.90;;;;;;4953315;29;20403;-75
2022/07/05 07:39:13;;;;;;;2.93;0.90;;;27.60;99.90;;;;;;4953756;28;20248;-75
2022/07/05 07:41:38;;;;;;;1.03;0.80;;;27.80;99.90;;;;;;4952450;28;20450;-74
2022/07/05 07:44:04;;;;;;;2.57;0.97;;;27.80;99.90;;;;;;4953925;29;20179;-75
2022/07/05 07:46:30;;;;;;;1.97;1.00;;;27.50;99.90;;;;;;4953414;28;20204;-74
2022/07/05 07:48:55;;;;;;;2.70;1.00;;;27.60;99.90;;;;;;4952662;28;20192;-77
2022/07/05 07:51:21;;;;;;;0.77;0.77;;;27.80;99.90;;;;;;4952782;28;20196;-75
2022/07/05 07:53:47;;;;;;;1.27;1.03;;;27.80;99.90;;;;;;4953342;28;20177;-75
2022/07/05 07:56:12;;;;;;;1.73;0.73;;;28.10;99.90;;;;;;4952904;28;20195;-75
2022/07/05 07:58:38;;;;;;;2.60;0.80;;;28.30;99.90;;;;;;4952696;28;21509;-75
2022/07/05 08:01:05;;;;;;;2.50;1.30;;;28.40;99.90;;;;;;4952714;28;20196;-75
2022/07/05 08:03:31;;;;;;;2.20;0.80;;;28.60;99.90;;;;;;4952868;28;20176;-75
2022/07/05 08:05:57;;;;;;;1.47;1.00;;;28.80;99.90;;;;;;4952465;28;20499;-73
2022/07/05 08:08:22;;;;;;;0.97;0.87;;;29.10;99.90;;;;;;4953062;28;20448;-75
2022/07/05 08:10:48;;;;;;;4.10;0.93;;;29.10;99.90;;;;;;4952227;28;20561;-75
2022/07/05 08:13:13;;;;;;;0.83;0.80;;;28.90;99.90;;;;;;4953153;28;20181;-75
2022/07/05 08:15:39;;;;;;;5.40;1.17;;;28.90;99.90;;;;;;4951514;29;20189;-75
2022/07/05 08:23:32;;;;;;;2.90;0.90;;;28.90;99.90;;;;;;4952822;29;20416;-76
2022/07/05 08:25:58;;;;;;;2.20;0.90;;;29.10;99.90;;;;;;4952539;29;20460;-74
2022/07/05 08:28:25;;;;;;;4.67;1.13;;;29.60;99.90;;;;;;4952264;29;20208;-75
2022/07/05 08:30:51;;;;;;;4.73;0.93;;;29.90;99.90;;;;;;4966625;28;20191;-75
2022/07/05 08:33:16;;;;;;;1.90;1.23;;;30.10;99.90;;;;;;4952707;29;20424;-72
2022/07/05 08:35:42;;;;;;;1.47;1.10;;;30.10;99.90;;;;;;4952604;28;20374;-75
2022/07/05 08:38:07;;;;;;;2.87;1.00;;;30.30;99.90;;;;;;4952547;28;20189;-75
2022/07/05 08:40:38;;;;;;;2.40;1.00;;;30.00;99.90;;;;;;4951759;29;20191;-73
2022/07/05 08:43:06;;;;;;;1.17;1.00;;;30.10;99.90;;;;;;4953073;28;20658;-75
2022/07/05 08:45:32;;;;;;;4.50;1.23;;;30.00;99.90;;;;;;4952353;29;20480;-75
2022/07/05 08:47:59;;;;;;;1.90;1.13;;;30.20;99.90;;;;;;4952279;28;20416;-74
2022/07/05 08:50:26;;;;;;;2.83;0.80;;;30.40;99.90;;;;;;4952087;28;20408;-75
2022/07/05 08:52:53;;;;;;;2.00;1.17;;;30.40;99.80;;;;;;4952400;28;20531;-74
2022/07/05 08:55:18;;;;;;;2.13;0.83;;;30.70;99.90;;;;;;4952373;28;20424;-74
2022/07/05 08:57:44;;;;;;;0.97;0.70;;;30.90;99.90;;;;;;4951982;29;20412;-75
2022/07/05 09:00:10;;;;;;;1.40;1.00;;;30.70;99.90;;;;;;4954618;28;20593;-76
2022/07/05 09:02:36;;;;;;;2.20;0.80;;;31.10;99.90;;;;;;4956552;28;20204;-73
2022/07/05 09:05:02;;;;;;;3.83;1.17;;;31.40;98.20;;;;;;4956678;29;20514;-75
2022/07/05 09:07:32;;;;;;;1.70;0.70;;;31.50;98.90;;;;;;4956788;29;20184;-75
2022/07/05 09:09:59;;;;;;;2.07;0.90;;;31.80;98.50;;;;;;4957179;29;20452;-74
2022/07/05 09:12:25;;;;;;;2.90;0.90;;;32.00;97.40;;;;;;4955673;28;20808;-75
2022/07/05 09:14:52;;;;;;;2.33;1.10;;;32.10;96.70;;;;;;4957100;28;20417;-75
2022/07/05 09:17:17;;;;;;;3.60;0.70;;;32.70;97.50;;;;;;4955621;28;20216;-75
2022/07/05 09:19:43;;;;;;;2.27;1.07;;;32.50;96.70;;;;;;4956140;29;20420;-75
2022/07/05 09:22:08;;;;;;;1.13;0.90;;;32.60;95.50;;;;;;4955270;28;20193;-75
2022/07/05 09:24:44;;;;;;;4.67;1.00;;;32.80;95.90;;;;;;4955880;28;20600;-76
2022/07/05 09:27:11;;;;;;;1.67;0.60;;;33.10;93.70;;;;;;4955951;28;20173;-75
2022/07/05 09:29:36;;;;;;;1.93;0.80;;;33.10;93.30;;;;;;4955324;29;20447;-72
2022/07/05 09:32:02;;;;;;;2.90;0.80;;;33.00;93.10;;;;;;4954957;28;20479;-75
2022/07/05 09:34:29;;;;;;;1.20;1.10;;;32.90;91.70;;;;;;4955619;28;20243;-73
2022/07/05 09:37:03;;;;;;;1.63;0.67;;;32.60;92.10;;;;;;4955887;29;20168;-75
2022/07/05 09:39:29;;;;;;;4.17;1.20;;;32.40;91.90;;;;;;4955517;29;20408;-75
2022/07/05 09:42:14;;;;;;;0.77;0.77;;;32.60;93.60;;;;;;4955023;28;20447;-75
2022/07/05 09:44:53;;;;;;;0.93;0.87;;;32.80;93.00;;;;;;4954801;28;20778;-75
2022/07/05 09:47:22;;;;;;;6.60;0.90;;;33.10;92.60;;;;;;4954648;28;20889;-75
2022/07/05 09:49:52;;;;;;;0.83;0.83;;;33.20;91.90;;;;;;4955637;28;20803;-75
2022/07/05 09:52:34;;;;;;;0.63;0.63;;;33.30;91.40;;;;;;4954437;28;20850;-75
2022/07/05 09:55:08;;;;;;;2.43;0.70;;;33.60;90.80;;;;;;4955076;28;20815;-75
2022/07/05 09:57:41;;;;;;;2.00;0.70;;;33.60;90.10;;;;;;4955322;29;20416;-75
2022/07/05 10:00:11;;;;;;;0.80;0.80;;;33.40;90.90;;;;;;4955303;28;20915;-75
2022/07/05 10:02:41;;;;;;;0.90;0.63;;;33.70;88.60;;;;;;4954331;28;20451;-73
2022/07/05 10:05:10;;;;;;;1.00;0.73;;;33.80;90.40;;;;;;4955376;29;20987;-76
2022/07/05 10:07:40;;;;;;;2.87;0.87;;;34.00;85.40;;;;;;4954859;28;20838;-76
2022/07/05 10:10:06;;;;;;;1.10;1.00;;;34.30;85.10;;;;;;4955346;28;20412;-75
2022/07/05 10:12:36;;;;;;;1.73;0.77;;;34.20;85.30;;;;;;4953571;28;20471;-76
2022/07/05 10:15:02;;;;;;;0.60;0.50;;;34.30;84.10;;;;;;4954912;29;20408;-75
2022/07/05 10:17:30;;;;;;;1.37;0.60;;;34.30;82.40;;;;;;4954914;28;20404;-74
2022/07/05 10:19:57;;;;;;;1.77;0.70;;;34.50;83.00;;;;;;4955094;28;20543;-75
2022/07/05 10:22:23;;;;;;;4.00;0.67;;;34.20;79.90;;;;;;4953880;28;20436;-75
2022/07/05 10:24:49;;;;;;;1.37;0.80;;;33.70;80.00;;;;;;4954835;28;20558;-75
2022/07/05 10:27:16;;;;;;;1.20;0.60;;;33.50;79.40;;;;;;4955769;28;20512;-74
2022/07/05 10:29:43;;;;;;;0.60;0.50;;;33.20;78.80;;;;;;4955590;28;20204;-76
2022/07/05 10:32:10;;;;;;;1.37;1.27;;;33.10;78.40;;;;;;4954573;28;20511;-75
2022/07/05 10:34:35;;;;;;;2.27;0.80;;;33.20;79.40;;;;;;4955409;28;20421;-75
2022/07/05 10:37:01;;;;;;;3.13;0.70;;;33.30;77.80;;;;;;4955214;28;20416;-75
2022/07/05 10:39:27;;;;;;;2.30;0.70;;;33.80;78.30;;;;;;4954303;29;20685;-73
2022/07/05 10:41:55;;;;;;;0.80;0.67;;;33.40;76.90;;;;;;4953520;28;20193;-76
2022/07/05 10:44:34;;;;;;;3.70;0.70;;;33.70;78.10;;;;;;4954644;28;20412;-76
2022/07/05 10:47:12;;;;;;;3.00;0.50;;;33.80;79.60;;;;;;4954899;29;20475;-75
2022/07/05 10:49:40;;;;;;;1.13;0.60;;;33.90;79.90;;;;;;4954369;29;20487;-74
2022/07/05 10:52:23;;;;;;;1.50;0.73;;;33.90;75.50;;;;;;4954289;28;20814;-74
2022/07/05 10:55:16;;;;;;;2.83;0.60;;;33.50;76.70;;;;;;4954259;28;20408;-75
2022/07/05 10:57:42;;;;;;;1.80;0.73;;;33.20;80.30;;;;;;4954190;28;20463;-75
2022/07/05 11:00:10;;;;;;;3.50;0.83;;;33.20;77.90;;;;;;4954345;29;20424;-76
2022/07/05 11:02:36;;;;;;;1.87;0.60;;;33.30;78.10;;;;;;4953024;28;20196;-75
2022/07/05 11:05:03;;;;;;;6.03;1.30;;;33.00;76.80;;;;;;4954272;29;20547;-76
2022/07/05 11:07:54;;;;;;;0.63;0.63;;;32.70;77.40;;;;;;4953318;28;20427;-75
2022/07/05 11:10:20;;;;;;;1.80;0.70;;;33.00;76.90;;;;;;4954458;29;20697;-75
2022/07/05 11:12:45;;;;;;;1.93;0.70;;;32.90;78.00;;;;;;4953249;28;20433;-75
2022/07/05 11:15:11;;;;;;;1.10;0.60;;;32.70;77.30;;;;;;4954350;29;20548;-75
2022/07/05 11:17:37;;;;;;;5.80;0.60;;;32.50;74.40;;;;;;4952342;29;20176;-73
2022/07/05 11:20:10;;;;;;;1.30;0.70;;;32.50;74.80;;;;;;4953369;28;20697;-75
2022/07/05 11:22:55;;;;;;;1.43;0.70;;;32.20;76.60;;;;;;4952636;28;20193;-75
2022/07/05 11:25:21;;;;;;;1.97;1.10;;;31.60;78.40;;;;;;4952798;29;20459;-74
2022/07/05 11:28:15;;;;;;;1.03;0.90;;;31.60;79.50;;;;;;4953460;29;20421;-75
2022/07/05 11:30:59;;;;;;;2.63;0.80;;;31.60;79.80;;;;;;4952225;28;20180;-75
2022/07/05 11:33:30;;;;;;;3.50;0.80;;;31.20;76.50;;;;;;4954045;28;20813;-75
2022/07/05 11:35:57;;;;;;;0.90;0.80;;;31.00;77.40;;;;;;4954033;29;20439;-77
2022/07/05 11:38:23;;;;;;;0.93;0.80;;;30.90;77.90;;;;;;4953360;28;20420;-75
2022/07/05 11:40:49;;;;;;;1.83;1.43;;;31.10;77.90;;;;;;4952576;28;20471;-75
2022/07/05 11:43:14;;;;;;;1.40;0.77;;;31.30;78.90;;;;;;4952771;28;20710;-75
2022/07/05 11:45:40;;;;;;;1.43;0.70;;;31.30;79.80;;;;;;4953191;28;20317;-75
2022/07/05 11:48:14;;;;;;;3.43;0.70;;;31.00;80.20;;;;;;4953614;28;20169;-75
2022/07/05 11:50:39;;;;;;;1.40;0.97;;;31.10;80.00;;;;;;4952420;28;20598;-75
2022/07/05 11:53:05;;;;;;;1.43;0.90;;;31.10;79.90;;;;;;4953191;29;20412;-76
2022/07/05 11:55:31;;;;;;;2.83;0.80;;;31.30;79.50;;;;;;4953126;28;20177;-76
2022/07/05 11:57:58;;;;;;;0.70;0.70;;;31.30;80.20;;;;;;4952932;29;20176;-73
2022/07/05 12:00:29;;;;;;;2.40;0.60;;;31.10;76.80;;;;;;4957798;28;20191;-73
2022/07/05 12:02:55;;;;;;;1.20;0.87;;;30.60;76.80;;;;;;4952604;28;20448;-76
2022/07/05 12:05:21;;;;;;;1.30;0.93;;;30.30;84.20;;;;;;4952278;28;20510;-75
2022/07/05 12:07:51;;;;;;;5.30;0.87;;;30.30;83.40;;;;;;4952223;29;20180;-76
2022/07/05 12:13:06;;;;;;;3.70;0.80;;;29.90;80.50;;;;;;4953199;29;20410;-75
2022/07/05 12:15:32;;;;;;;2.53;0.80;;;29.40;81.40;;;;;;4952757;29;20826;-75
2022/07/05 12:18:03;;;;;;;2.13;0.70;;;29.30;84.30;;;;;;4953178;28;20420;-75
2022/07/05 12:20:30;;;;;;;2.50;0.93;;;29.40;84.40;;;;;;4952138;28;20240;-75
2022/07/05 12:22:55;;;;;;;1.03;0.80;;;29.60;84.40;;;;;;4952666;28;20559;-75
2022/07/05 12:25:23;;;;;;;2.03;1.00;;;29.80;84.70;;;;;;4953353;29;20538;-77
2022/07/05 12:27:50;;;;;;;1.20;1.10;;;29.70;83.10;;;;;;4953311;28;20180;-76
2022/07/05 12:30:17;;;;;;;2.83;0.90;;;29.70;84.20;;;;;;4952598;28;20422;-74
2022/07/05 12:33:05;;;;;;;2.47;1.23;;;29.60;82.00;;;;;;4951603;28;20475;-76
2022/07/05 12:35:43;;;;;;;3.13;0.90;;;29.20;85.50;;;;;;4952421;28;20412;-75
2022/07/05 12:38:18;;;;;;;1.00;0.80;;;29.40;87.30;;;;;;4952388;28;20408;-75
2022/07/05 12:40:56;;;;;;;1.90;0.83;;;28.90;87.00;;;;;;4951919;28;20447;-75
2022/07/05 12:43:21;;;;;;;1.50;1.40;;;28.60;83.50;;;;;;4952803;28;20416;-75
2022/07/05 12:46:04;;;;;;;1.20;1.10;;;28.50;83.70;;;;;;4952500;29;20518;-75
2022/07/05 12:48:38;;;;;;;1.00;0.80;;;28.70;85.30;;;;;;4952456;28;20653;-75
2022/07/05 12:51:05;;;;;;;0.97;0.87;;;28.60;83.30;;;;;;4951975;28;20467;-75
2022/07/05 12:59:02;;;;;;;2.00;0.93;;;28.70;87.00;;;;;;4952437;29;20415;-75
2022/07/05 13:01:34;;;;;;;2.30;1.03;;;28.80;86.70;;;;;;4951412;28;20436;-75
2022/07/05 13:04:09;;;;;;;2.40;0.87;;;28.80;88.30;;;;;;4952260;28;20435;-75
2022/07/05 13:06:54;;;;;;;2.67;0.80;;;28.90;88.50;;;;;;4952136;29;20487;-76
2022/07/05 13:09:30;;;;;;;1.60;0.90;;;28.80;86.40;;;;;;4952264;28;20427;-75
2022/07/05 13:12:05;;;;;;;1.30;0.70;;;28.70;85.60;;;;;;4951397;28;20846;-76
2022/07/05 13:14:30;;;;;;;2.00;0.73;;;28.60;85.80;;;;;;4952296;28;20427;-75
2022/07/05 13:16:56;;;;;;;1.73;0.83;;;28.70;88.20;;;;;;4952403;28;20428;-76
2022/07/05 13:19:22;;;;;;;1.50;0.90;;;28.80;88.00;;;;;;4952181;29;20192;-76
2022/07/05 13:21:47;;;;;;;1.73;0.93;;;28.70;86.40;;;;;;4950876;28;20200;-75
2022/07/05 13:24:13;;;;;;;1.87;1.10;;;28.40;85.00;;;;;;4952254;29;20424;-75
2022/07/05 13:26:38;;;;;;;1.47;1.20;;;28.30;86.90;;;;;;4952288;29;20217;-75
2022/07/05 13:29:04;;;;;;;1.60;1.13;;;28.30;87.00;;;;;;4952475;29;20232;-75
2022/07/05 13:31:30;;;;;;;1.37;0.93;;;28.30;83.30;;;;;;4951134;28;20224;-73
2022/07/05 13:33:56;;;;;;;0.97;0.90;;;28.10;85.00;;;;;;4951881;29;20598;-75
2022/07/05 13:36:22;;;;;;;3.43;1.57;;;28.10;88.40;;;;;;4952054;28;20452;-75
2022/07/05 13:38:47;;;;;;;2.17;1.03;;;28.30;89.10;;;;;;4952276;29;20420;-75
2022/07/05 13:41:13;;;;;;;2.53;0.90;;;28.40;88.30;;;;;;4951664;28;21033;-73
2022/07/05 13:43:39;;;;;;;0.90;0.90;;;28.50;86.40;;;;;;4951711;29;20188;-74
2022/07/05 13:46:05;;;;;;;1.63;1.13;;;28.30;85.60;;;;;;4951689;28;20204;-76
2022/07/05 13:48:31;;;;;;;2.60;1.00;;;28.20;83.40;;;;;;4954770;28;20189;-75
2022/07/05 13:50:56;;;;;;;1.23;1.03;;;28.10;84.10;;;;;;4955017;28;20440;-72
2022/07/05 13:53:22;;;;;;;1.27;1.00;;;28.00;84.60;;;;;;4955189;29;20188;-76
2022/07/05 13:55:47;;;;;;;4.73;1.10;;;28.00;88.20;;;;;;4955248;28;20219;-75
2022/07/05 13:58:13;;;;;;;0.97;0.97;;;28.00;88.10;;;;;;4955669;29;20702;-75
2022/07/05 14:00:38;;;;;;;1.90;0.90;;;28.00;87.90;;;;;;4954611;28;20192;-73
2022/07/05 14:03:04;;;;;;;3.37;1.00;;;27.90;84.90;;;;;;4955406;28;20534;-75
2022/07/05 14:05:29;;;;;;;1.13;1.10;;;27.80;84.80;;;;;;4954670;29;20255;-74
2022/07/05 14:07:55;;;;;;;1.47;0.93;;;27.70;86.10;;;;;;4955063;29;20630;-74
2022/07/05 14:10:20;;;;;;;1.33;1.23;;;27.60;88.50;;;;;;4955061;29;20192;-74
2022/07/05 14:12:46;;;;;;;1.67;1.00;;;27.60;88.90;;;;;;4954288;28;20201;-75
2022/07/05 14:15:12;;;;;;;2.63;1.07;;;27.60;88.40;;;;;;4955097;29;20634;-72
2022/07/05 14:17:38;;;;;;;6.27;1.20;;;27.80;89.40;;;;;;4954466;28;20188;-72
2022/07/05 14:20:05;;;;;;;1.10;1.00;;;27.70;88.00;;;;;;4954986;28;20981;-74
2022/07/05 14:22:30;;;;;;;2.33;1.00;;;27.60;87.80;;;;;;4953931;28;20568;-74
2022/07/05 14:24:56;;;;;;;1.10;0.93;;;27.50;86.40;;;;;;4969724;28;20463;-73
2022/07/05 14:27:21;;;;;;;2.50;1.00;;;27.50;87.50;;;;;;4954430;29;20685;-75
2022/07/05 14:29:47;;;;;;;2.50;0.80;;;27.50;89.10;;;;;;4954832;29;20263;-75
2022/07/05 14:32:12;;;;;;;4.57;1.20;;;27.30;85.50;;;;;;4954149;28;20219;-75